sensor_id;sensor_type;location;lat;lon;timestamp;temperature;humidity
11965;DHT22;6042;41.326;19.826;2023-07-31T00:01:55;25.90;91.20
11965;DHT22;6042;41.326;19.826;2023-07-31T00:04:23;25.90;91.40
11965;DHT22;6042;41.326;19.826;2023-07-31T00:06:53;26.00;91.20
11965;DHT22;6042;41.326;19.826;2023-07-31T00:09:22;25.80;91.20
11965;DHT22;6042;41.326;19.826;2023-07-31T00:11:51;25.70;91.40
11965;DHT22;6042;41.326;19.826;2023-07-31T00:14:19;25.90;91.10
11965;DHT22;6042;41.326;19.826;2023-07-31T00:16:48;26.00;90.80
11965;DHT22;6042;41.326;19.826;2023-07-31T00:19:18;25.90;90.50
11965;DHT22;6042;41.326;19.826;2023-07-31T00:21:47;25.90;90.50
11965;DHT22;6042;41.326;19.826;2023-07-31T00:24:17;25.80;90.30
11965;DHT22;6042;41.326;19.826;2023-07-31T00:26:46;25.60;90.60
11965;DHT22;6042;41.326;19.826;2023-07-31T00:29:14;25.60;90.90
11965;DHT22;6042;41.326;19.826;2023-07-31T00:31:43;25.60;90.80
11965;DHT22;6042;41.326;19.826;2023-07-31T00:34:11;25.60;91.10
11965;DHT22;6042;41.326;19.826;2023-07-31T00:36:40;25.60;91.10
11965;DHT22;6042;41.326;19.826;2023-07-31T00:39:08;25.60;91.10
11965;DHT22;6042;41.326;19.826;2023-07-31T00:41:38;25.40;90.70
11965;DHT22;6042;41.326;19.826;2023-07-31T00:44:07;25.50;90.80
11965;DHT22;6042;41.326;19.826;2023-07-31T00:46:36;25.60;90.60
11965;DHT22;6042;41.326;19.826;2023-07-31T00:49:05;25.60;90.50
11965;DHT22;6042;41.326;19.826;2023-07-31T00:51:34;25.60;90.50
11965;DHT22;6042;41.326;19.826;2023-07-31T00:54:03;25.60;90.50
11965;DHT22;6042;41.326;19.826;2023-07-31T00:56:32;25.50;90.90
11965;DHT22;6042;41.326;19.826;2023-07-31T00:59:02;25.40;90.70
11965;DHT22;6042;41.326;19.826;2023-07-31T01:01:32;25.50;90.60
11965;DHT22;6042;41.326;19.826;2023-07-31T01:04:03;25.60;90.60
11965;DHT22;6042;41.326;19.826;2023-07-31T01:06:38;25.60;90.70
11965;DHT22;6042;41.326;19.826;2023-07-31T01:09:15;25.60;90.80
11965;DHT22;6042;41.326;19.826;2023-07-31T01:11:52;25.60;90.70
11965;DHT22;6042;41.326;19.826;2023-07-31T01:14:22;25.50;90.90
11965;DHT22;6042;41.326;19.826;2023-07-31T01:16:51;25.40;91.00
11965;DHT22;6042;41.326;19.826;2023-07-31T01:19:24;25.40;90.90
11965;DHT22;6042;41.326;19.826;2023-07-31T01:22:22;25.20;91.00
11965;DHT22;6042;41.326;19.826;2023-07-31T01:25:10;25.20;91.00
11965;DHT22;6042;41.326;19.826;2023-07-31T01:27:51;25.40;90.70
11965;DHT22;6042;41.326;19.826;2023-07-31T01:30:24;25.60;90.40
11965;DHT22;6042;41.326;19.826;2023-07-31T01:32:54;25.50;90.40
11965;DHT22;6042;41.326;19.826;2023-07-31T01:35:25;25.60;90.40
11965;DHT22;6042;41.326;19.826;2023-07-31T01:37:53;25.60;90.60
11965;DHT22;6042;41.326;19.826;2023-07-31T01:40:22;25.60;90.90
11965;DHT22;6042;41.326;19.826;2023-07-31T01:42:52;25.50;91.00
11965;DHT22;6042;41.326;19.826;2023-07-31T01:45:20;25.50;90.90
11965;DHT22;6042;41.326;19.826;2023-07-31T01:47:49;25.50;91.00
11965;DHT22;6042;41.326;19.826;2023-07-31T01:50:18;25.50;91.20
11965;DHT22;6042;41.326;19.826;2023-07-31T01:52:46;25.50;91.10
11965;DHT22;6042;41.326;19.826;2023-07-31T01:55:15;25.50;91.00
11965;DHT22;6042;41.326;19.826;2023-07-31T01:57:43;25.50;91.00
11965;DHT22;6042;41.326;19.826;2023-07-31T02:00:13;25.50;90.80
11965;DHT22;6042;41.326;19.826;2023-07-31T02:02:43;25.40;90.80
11965;DHT22;6042;41.326;19.826;2023-07-31T02:05:12;25.40;90.90
11965;DHT22;6042;41.326;19.826;2023-07-31T02:07:40;25.50;90.70
11965;DHT22;6042;41.326;19.826;2023-07-31T02:10:09;25.50;90.70
11965;DHT22;6042;41.326;19.826;2023-07-31T02:12:38;25.50;90.60
11965;DHT22;6042;41.326;19.826;2023-07-31T02:15:07;25.40;90.80
11965;DHT22;6042;41.326;19.826;2023-07-31T02:17:37;25.50;91.10
11965;DHT22;6042;41.326;19.826;2023-07-31T02:20:07;25.60;91.10
11965;DHT22;6042;41.326;19.826;2023-07-31T02:22:36;25.50;91.20
11965;DHT22;6042;41.326;19.826;2023-07-31T02:25:05;25.50;91.60
11965;DHT22;6042;41.326;19.826;2023-07-31T02:27:34;25.50;91.40
11965;DHT22;6042;41.326;19.826;2023-07-31T02:30:02;25.30;91.50
11965;DHT22;6042;41.326;19.826;2023-07-31T02:32:32;25.10;91.80
11965;DHT22;6042;41.326;19.826;2023-07-31T02:35:02;25.10;91.90
11965;DHT22;6042;41.326;19.826;2023-07-31T02:37:31;25.10;92.10
11965;DHT22;6042;41.326;19.826;2023-07-31T02:39:59;25.10;92.20
11965;DHT22;6042;41.326;19.826;2023-07-31T02:42:28;25.10;92.20
11965;DHT22;6042;41.326;19.826;2023-07-31T02:44:57;25.10;92.10
11965;DHT22;6042;41.326;19.826;2023-07-31T02:47:26;25.30;91.90
11965;DHT22;6042;41.326;19.826;2023-07-31T02:49:55;25.40;91.90
11965;DHT22;6042;41.326;19.826;2023-07-31T02:52:26;25.30;91.80
11965;DHT22;6042;41.326;19.826;2023-07-31T02:54:54;25.30;91.60
11965;DHT22;6042;41.326;19.826;2023-07-31T02:57:23;25.30;91.60
11965;DHT22;6042;41.326;19.826;2023-07-31T02:59:51;25.30;91.70
11965;DHT22;6042;41.326;19.826;2023-07-31T03:02:20;25.10;91.90
11965;DHT22;6042;41.326;19.826;2023-07-31T03:04:48;25.10;91.90
11965;DHT22;6042;41.326;19.826;2023-07-31T03:07:17;25.10;91.90
11965;DHT22;6042;41.326;19.826;2023-07-31T03:09:47;25.10;92.20
11965;DHT22;6042;41.326;19.826;2023-07-31T03:12:16;25.10;92.70
11965;DHT22;6042;41.326;19.826;2023-07-31T03:14:44;25.00;92.70
11965;DHT22;6042;41.326;19.826;2023-07-31T03:17:13;25.00;93.30
11965;DHT22;6042;41.326;19.826;2023-07-31T03:19:41;24.90;93.20
11965;DHT22;6042;41.326;19.826;2023-07-31T03:22:10;24.90;93.40
11965;DHT22;6042;41.326;19.826;2023-07-31T03:24:38;24.90;93.60
11965;DHT22;6042;41.326;19.826;2023-07-31T03:27:08;25.00;93.40
11965;DHT22;6042;41.326;19.826;2023-07-31T03:29:37;25.10;93.20
11965;DHT22;6042;41.326;19.826;2023-07-31T03:32:06;25.10;93.10
11965;DHT22;6042;41.326;19.826;2023-07-31T03:34:36;25.10;93.20
11965;DHT22;6042;41.326;19.826;2023-07-31T03:37:05;25.00;93.80
11965;DHT22;6042;41.326;19.826;2023-07-31T03:39:36;25.00;93.60
11965;DHT22;6042;41.326;19.826;2023-07-31T03:42:05;25.10;93.10
11965;DHT22;6042;41.326;19.826;2023-07-31T03:44:36;25.00;93.20
11965;DHT22;6042;41.326;19.826;2023-07-31T03:47:05;25.10;93.50
11965;DHT22;6042;41.326;19.826;2023-07-31T03:49:34;25.00;93.30
11965;DHT22;6042;41.326;19.826;2023-07-31T03:52:02;25.00;93.30
11965;DHT22;6042;41.326;19.826;2023-07-31T03:54:31;25.10;93.30
11965;DHT22;6042;41.326;19.826;2023-07-31T03:57:00;25.00;93.60
11965;DHT22;6042;41.326;19.826;2023-07-31T03:59:28;25.20;93.60
11965;DHT22;6042;41.326;19.826;2023-07-31T04:01:58;25.20;93.00
11965;DHT22;6042;41.326;19.826;2023-07-31T04:04:26;25.20;93.10
11965;DHT22;6042;41.326;19.826;2023-07-31T04:06:55;25.20;93.20
11965;DHT22;6042;41.326;19.826;2023-07-31T04:09:23;25.20;93.00
11965;DHT22;6042;41.326;19.826;2023-07-31T04:11:52;25.20;93.40
11965;DHT22;6042;41.326;19.826;2023-07-31T04:14:21;25.20;93.30
11965;DHT22;6042;41.326;19.826;2023-07-31T04:16:50;25.10;93.10
11965;DHT22;6042;41.326;19.826;2023-07-31T04:19:20;25.10;93.40
11965;DHT22;6042;41.326;19.826;2023-07-31T04:21:49;25.40;92.80
11965;DHT22;6042;41.326;19.826;2023-07-31T04:24:18;25.40;93.30
11965;DHT22;6042;41.326;19.826;2023-07-31T04:26:52;25.40;93.50
11965;DHT22;6042;41.326;19.826;2023-07-31T04:29:20;25.40;93.50
11965;DHT22;6042;41.326;19.826;2023-07-31T04:31:49;25.30;93.50
11965;DHT22;6042;41.326;19.826;2023-07-31T04:34:17;25.40;93.50
11965;DHT22;6042;41.326;19.826;2023-07-31T04:36:47;25.50;93.20
11965;DHT22;6042;41.326;19.826;2023-07-31T04:39:16;25.50;93.00
11965;DHT22;6042;41.326;19.826;2023-07-31T04:41:44;25.50;93.20
11965;DHT22;6042;41.326;19.826;2023-07-31T04:44:13;25.50;93.20
11965;DHT22;6042;41.326;19.826;2023-07-31T04:46:42;25.50;93.30
11965;DHT22;6042;41.326;19.826;2023-07-31T04:49:11;25.60;93.40
11965;DHT22;6042;41.326;19.826;2023-07-31T04:51:39;25.70;93.00
11965;DHT22;6042;41.326;19.826;2023-07-31T04:54:09;25.80;92.90
11965;DHT22;6042;41.326;19.826;2023-07-31T04:56:39;25.70;92.80
11965;DHT22;6042;41.326;19.826;2023-07-31T04:59:08;25.30;93.40
11965;DHT22;6042;41.326;19.826;2023-07-31T05:01:36;25.20;93.70
11965;DHT22;6042;41.326;19.826;2023-07-31T05:04:05;25.30;93.80
11965;DHT22;6042;41.326;19.826;2023-07-31T05:06:33;25.30;93.70
11965;DHT22;6042;41.326;19.826;2023-07-31T05:09:02;25.30;93.70
11965;DHT22;6042;41.326;19.826;2023-07-31T05:11:32;25.30;93.90
11965;DHT22;6042;41.326;19.826;2023-07-31T05:14:02;25.40;93.70
11965;DHT22;6042;41.326;19.826;2023-07-31T05:16:31;25.50;93.70
11965;DHT22;6042;41.326;19.826;2023-07-31T05:19:00;25.50;93.50
11965;DHT22;6042;41.326;19.826;2023-07-31T05:21:28;25.50;93.70
11965;DHT22;6042;41.326;19.826;2023-07-31T05:23:57;25.50;93.70
11965;DHT22;6042;41.326;19.826;2023-07-31T05:26:26;25.60;93.70
11965;DHT22;6042;41.326;19.826;2023-07-31T05:28:56;25.70;93.70
11965;DHT22;6042;41.326;19.826;2023-07-31T05:31:25;25.80;93.50
11965;DHT22;6042;41.326;19.826;2023-07-31T05:33:54;25.80;93.60
11965;DHT22;6042;41.326;19.826;2023-07-31T05:36:22;25.90;93.30
11965;DHT22;6042;41.326;19.826;2023-07-31T05:38:51;26.00;93.20
11965;DHT22;6042;41.326;19.826;2023-07-31T05:41:19;25.90;93.30
11965;DHT22;6042;41.326;19.826;2023-07-31T05:43:48;25.90;93.50
11965;DHT22;6042;41.326;19.826;2023-07-31T05:46:18;26.10;93.40
11965;DHT22;6042;41.326;19.826;2023-07-31T05:48:47;26.20;93.20
11965;DHT22;6042;41.326;19.826;2023-07-31T05:51:16;26.60;92.90
11965;DHT22;6042;41.326;19.826;2023-07-31T05:53:44;27.10;92.20
11965;DHT22;6042;41.326;19.826;2023-07-31T05:56:13;27.10;92.00
11965;DHT22;6042;41.326;19.826;2023-07-31T05:58:41;27.30;91.90
11965;DHT22;6042;41.326;19.826;2023-07-31T06:01:10;27.20;92.00
11965;DHT22;6042;41.326;19.826;2023-07-31T06:03:40;27.20;92.10
11965;DHT22;6042;41.326;19.826;2023-07-31T06:06:08;27.20;92.20
11965;DHT22;6042;41.326;19.826;2023-07-31T06:08:37;27.30;92.30
11965;DHT22;6042;41.326;19.826;2023-07-31T06:11:07;27.40;92.20
11965;DHT22;6042;41.326;19.826;2023-07-31T06:13:36;27.40;92.10
11965;DHT22;6042;41.326;19.826;2023-07-31T06:16:06;27.30;92.00
11965;DHT22;6042;41.326;19.826;2023-07-31T06:18:35;27.50;91.50
11965;DHT22;6042;41.326;19.826;2023-07-31T06:21:06;27.50;91.30
11965;DHT22;6042;41.326;19.826;2023-07-31T06:23:35;27.50;91.40
11965;DHT22;6042;41.326;19.826;2023-07-31T06:26:03;27.60;91.40
11965;DHT22;6042;41.326;19.826;2023-07-31T06:28:32;27.70;91.40
11965;DHT22;6042;41.326;19.826;2023-07-31T06:31:01;27.80;91.60
11965;DHT22;6042;41.326;19.826;2023-07-31T06:33:29;27.80;91.80
11965;DHT22;6042;41.326;19.826;2023-07-31T06:35:58;27.90;92.00
11965;DHT22;6042;41.326;19.826;2023-07-31T06:38:29;28.00;91.80
11965;DHT22;6042;41.326;19.826;2023-07-31T06:40:58;28.20;92.50
11965;DHT22;6042;41.326;19.826;2023-07-31T06:43:27;28.30;93.20
11965;DHT22;6042;41.326;19.826;2023-07-31T06:45:55;28.30;93.10
11965;DHT22;6042;41.326;19.826;2023-07-31T06:48:24;28.20;93.80
11965;DHT22;6042;41.326;19.826;2023-07-31T06:50:53;28.30;94.20
11965;DHT22;6042;41.326;19.826;2023-07-31T06:53:21;28.40;95.20
11965;DHT22;6042;41.326;19.826;2023-07-31T06:55:52;28.50;95.90
11965;DHT22;6042;41.326;19.826;2023-07-31T06:58:22;28.50;96.20
11965;DHT22;6042;41.326;19.826;2023-07-31T07:00:51;28.40;96.40
11965;DHT22;6042;41.326;19.826;2023-07-31T07:03:20;28.50;96.60
11965;DHT22;6042;41.326;19.826;2023-07-31T07:05:48;28.50;97.00
11965;DHT22;6042;41.326;19.826;2023-07-31T07:08:17;28.40;95.90
11965;DHT22;6042;41.326;19.826;2023-07-31T07:10:46;28.30;96.50
11965;DHT22;6042;41.326;19.826;2023-07-31T07:13:16;28.40;96.20
11965;DHT22;6042;41.326;19.826;2023-07-31T07:15:48;28.60;96.10
11965;DHT22;6042;41.326;19.826;2023-07-31T07:18:16;28.70;95.80
11965;DHT22;6042;41.326;19.826;2023-07-31T07:20:47;28.80;95.30
11965;DHT22;6042;41.326;19.826;2023-07-31T07:23:16;28.90;94.90
11965;DHT22;6042;41.326;19.826;2023-07-31T07:25:45;28.80;94.10
11965;DHT22;6042;41.326;19.826;2023-07-31T07:28:15;29.50;93.10
11965;DHT22;6042;41.326;19.826;2023-07-31T07:30:44;30.00;92.30
11965;DHT22;6042;41.326;19.826;2023-07-31T07:33:12;30.10;91.30
11965;DHT22;6042;41.326;19.826;2023-07-31T07:35:41;30.20;91.20
11965;DHT22;6042;41.326;19.826;2023-07-31T07:38:10;30.10;90.80
11965;DHT22;6042;41.326;19.826;2023-07-31T07:40:39;30.30;90.80
11965;DHT22;6042;41.326;19.826;2023-07-31T07:43:08;30.50;90.90
11965;DHT22;6042;41.326;19.826;2023-07-31T07:45:38;30.50;90.80
11965;DHT22;6042;41.326;19.826;2023-07-31T07:48:07;30.60;90.80
11965;DHT22;6042;41.326;19.826;2023-07-31T07:50:37;30.70;90.10
11965;DHT22;6042;41.326;19.826;2023-07-31T07:53:07;30.60;90.00
11965;DHT22;6042;41.326;19.826;2023-07-31T07:55:35;30.60;89.80
11965;DHT22;6042;41.326;19.826;2023-07-31T07:58:07;30.70;90.00
11965;DHT22;6042;41.326;19.826;2023-07-31T08:00:37;30.70;90.10
11965;DHT22;6042;41.326;19.826;2023-07-31T08:03:06;30.70;90.30
11965;DHT22;6042;41.326;19.826;2023-07-31T08:05:35;30.60;90.00
11965;DHT22;6042;41.326;19.826;2023-07-31T08:08:04;30.50;89.70
11965;DHT22;6042;41.326;19.826;2023-07-31T08:10:33;30.70;88.50
11965;DHT22;6042;41.326;19.826;2023-07-31T08:13:02;30.80;85.60
11965;DHT22;6042;41.326;19.826;2023-07-31T08:15:30;31.00;85.80
11965;DHT22;6042;41.326;19.826;2023-07-31T08:18:00;31.10;86.50
11965;DHT22;6042;41.326;19.826;2023-07-31T08:20:29;31.20;85.70
11965;DHT22;6042;41.326;19.826;2023-07-31T08:22:57;31.40;85.00
11965;DHT22;6042;41.326;19.826;2023-07-31T08:25:26;31.50;84.80
11965;DHT22;6042;41.326;19.826;2023-07-31T08:27:55;31.50;85.00
11965;DHT22;6042;41.326;19.826;2023-07-31T08:30:24;31.20;86.00
11965;DHT22;6042;41.326;19.826;2023-07-31T08:32:53;31.00;87.10
11965;DHT22;6042;41.326;19.826;2023-07-31T08:35:23;30.90;86.80
11965;DHT22;6042;41.326;19.826;2023-07-31T08:37:52;30.60;87.70
11965;DHT22;6042;41.326;19.826;2023-07-31T08:40:21;30.50;86.10
11965;DHT22;6042;41.326;19.826;2023-07-31T08:42:52;30.50;85.50
11965;DHT22;6042;41.326;19.826;2023-07-31T08:45:22;30.50;85.70
11965;DHT22;6042;41.326;19.826;2023-07-31T08:47:52;30.50;86.00
11965;DHT22;6042;41.326;19.826;2023-07-31T08:50:22;30.50;84.40
11965;DHT22;6042;41.326;19.826;2023-07-31T08:52:52;30.50;84.40
11965;DHT22;6042;41.326;19.826;2023-07-31T08:55:25;30.60;83.90
11965;DHT22;6042;41.326;19.826;2023-07-31T08:57:55;30.80;83.60
11965;DHT22;6042;41.326;19.826;2023-07-31T09:00:24;30.80;84.80
11965;DHT22;6042;41.326;19.826;2023-07-31T09:02:57;30.80;84.10
11965;DHT22;6042;41.326;19.826;2023-07-31T09:05:31;30.80;83.90
11965;DHT22;6042;41.326;19.826;2023-07-31T09:08:02;30.90;83.70
11965;DHT22;6042;41.326;19.826;2023-07-31T09:10:32;30.90;83.60
11965;DHT22;6042;41.326;19.826;2023-07-31T09:13:02;30.90;83.00
11965;DHT22;6042;41.326;19.826;2023-07-31T09:15:31;30.90;83.00
11965;DHT22;6042;41.326;19.826;2023-07-31T09:18:06;31.00;83.00
11965;DHT22;6042;41.326;19.826;2023-07-31T09:20:37;30.90;83.60
11965;DHT22;6042;41.326;19.826;2023-07-31T09:23:09;31.10;83.40
11965;DHT22;6042;41.326;19.826;2023-07-31T09:25:39;31.30;81.70
11965;DHT22;6042;41.326;19.826;2023-07-31T09:28:09;31.50;78.30
11965;DHT22;6042;41.326;19.826;2023-07-31T09:30:46;31.40;78.50
11965;DHT22;6042;41.326;19.826;2023-07-31T09:33:16;31.50;77.70
11965;DHT22;6042;41.326;19.826;2023-07-31T09:35:47;31.50;77.30
11965;DHT22;6042;41.326;19.826;2023-07-31T09:38:16;31.50;77.60
11965;DHT22;6042;41.326;19.826;2023-07-31T09:40:46;31.50;78.40
11965;DHT22;6042;41.326;19.826;2023-07-31T09:43:18;31.50;78.30
11965;DHT22;6042;41.326;19.826;2023-07-31T09:45:47;31.50;77.60
11965;DHT22;6042;41.326;19.826;2023-07-31T09:48:17;31.60;77.50
11965;DHT22;6042;41.326;19.826;2023-07-31T09:50:48;31.60;75.80
11965;DHT22;6042;41.326;19.826;2023-07-31T09:53:17;31.60;76.20
11965;DHT22;6042;41.326;19.826;2023-07-31T09:55:46;31.50;76.50
11965;DHT22;6042;41.326;19.826;2023-07-31T09:58:14;31.50;77.30
11965;DHT22;6042;41.326;19.826;2023-07-31T10:00:43;31.70;75.70
11965;DHT22;6042;41.326;19.826;2023-07-31T10:03:12;31.90;75.90
11965;DHT22;6042;41.326;19.826;2023-07-31T10:05:48;32.00;75.40
11965;DHT22;6042;41.326;19.826;2023-07-31T10:08:20;32.20;75.30
11965;DHT22;6042;41.326;19.826;2023-07-31T10:10:49;32.20;74.30
11965;DHT22;6042;41.326;19.826;2023-07-31T10:13:19;32.30;75.00
11965;DHT22;6042;41.326;19.826;2023-07-31T10:15:50;32.20;74.00
11965;DHT22;6042;41.326;19.826;2023-07-31T10:18:22;32.30;73.90
11965;DHT22;6042;41.326;19.826;2023-07-31T10:20:58;32.30;73.90
11965;DHT22;6042;41.326;19.826;2023-07-31T10:23:27;32.10;74.40
11965;DHT22;6042;41.326;19.826;2023-07-31T10:25:57;32.20;74.60
11965;DHT22;6042;41.326;19.826;2023-07-31T10:28:27;32.20;73.50
11965;DHT22;6042;41.326;19.826;2023-07-31T10:30:57;32.20;73.70
11965;DHT22;6042;41.326;19.826;2023-07-31T10:33:28;32.20;73.50
11965;DHT22;6042;41.326;19.826;2023-07-31T10:36:17;32.20;73.30
11965;DHT22;6042;41.326;19.826;2023-07-31T10:38:50;32.10;73.30
11965;DHT22;6042;41.326;19.826;2023-07-31T10:41:20;32.20;72.30
11965;DHT22;6042;41.326;19.826;2023-07-31T10:43:58;32.30;72.00
11965;DHT22;6042;41.326;19.826;2023-07-31T10:46:28;32.40;70.30
11965;DHT22;6042;41.326;19.826;2023-07-31T10:48:58;32.50;70.50
11965;DHT22;6042;41.326;19.826;2023-07-31T10:51:40;32.70;71.20
11965;DHT22;6042;41.326;19.826;2023-07-31T10:54:11;32.70;69.90
11965;DHT22;6042;41.326;19.826;2023-07-31T10:56:40;32.80;70.50
11965;DHT22;6042;41.326;19.826;2023-07-31T10:59:13;32.90;70.20
11965;DHT22;6042;41.326;19.826;2023-07-31T11:01:50;33.00;70.00
11965;DHT22;6042;41.326;19.826;2023-07-31T11:04:23;32.90;69.50
11965;DHT22;6042;41.326;19.826;2023-07-31T11:06:58;32.70;68.10
11965;DHT22;6042;41.326;19.826;2023-07-31T11:09:29;32.80;67.90
11965;DHT22;6042;41.326;19.826;2023-07-31T11:12:00;33.00;67.10
11965;DHT22;6042;41.326;19.826;2023-07-31T11:14:29;33.00;65.40
11965;DHT22;6042;41.326;19.826;2023-07-31T11:17:05;33.10;65.70
11965;DHT22;6042;41.326;19.826;2023-07-31T11:19:34;33.00;63.90
11965;DHT22;6042;41.326;19.826;2023-07-31T11:22:07;33.00;64.20
11965;DHT22;6042;41.326;19.826;2023-07-31T11:24:36;33.00;63.80
11965;DHT22;6042;41.326;19.826;2023-07-31T11:27:07;33.00;64.20
11965;DHT22;6042;41.326;19.826;2023-07-31T11:29:36;33.20;63.60
11965;DHT22;6042;41.326;19.826;2023-07-31T11:32:16;33.40;61.80
11965;DHT22;6042;41.326;19.826;2023-07-31T11:34:51;33.50;63.00
11965;DHT22;6042;41.326;19.826;2023-07-31T11:37:22;33.50;62.90
11965;DHT22;6042;41.326;19.826;2023-07-31T11:40:01;33.70;61.70
11965;DHT22;6042;41.326;19.826;2023-07-31T11:42:31;33.90;60.80
11965;DHT22;6042;41.326;19.826;2023-07-31T11:45:02;34.00;60.30
11965;DHT22;6042;41.326;19.826;2023-07-31T11:47:33;33.90;60.80
11965;DHT22;6042;41.326;19.826;2023-07-31T11:50:04;34.20;60.10
11965;DHT22;6042;41.326;19.826;2023-07-31T11:52:37;34.30;60.20
11965;DHT22;6042;41.326;19.826;2023-07-31T11:55:07;34.40;59.40
11965;DHT22;6042;41.326;19.826;2023-07-31T11:57:39;34.40;58.50
11965;DHT22;6042;41.326;19.826;2023-07-31T12:00:09;34.50;58.70
11965;DHT22;6042;41.326;19.826;2023-07-31T12:02:40;34.50;58.30
11965;DHT22;6042;41.326;19.826;2023-07-31T12:05:11;34.40;58.30
11965;DHT22;6042;41.326;19.826;2023-07-31T12:07:49;34.40;58.40
11965;DHT22;6042;41.326;19.826;2023-07-31T12:10:28;34.20;58.00
11965;DHT22;6042;41.326;19.826;2023-07-31T12:13:02;34.40;58.10
11965;DHT22;6042;41.326;19.826;2023-07-31T12:15:38;34.40;57.80
11965;DHT22;6042;41.326;19.826;2023-07-31T12:18:08;34.30;58.00
11965;DHT22;6042;41.326;19.826;2023-07-31T12:20:42;34.10;56.80
11965;DHT22;6042;41.326;19.826;2023-07-31T12:23:17;34.20;57.80
11965;DHT22;6042;41.326;19.826;2023-07-31T12:25:45;34.50;57.20
11965;DHT22;6042;41.326;19.826;2023-07-31T12:28:16;34.60;56.50
11965;DHT22;6042;41.326;19.826;2023-07-31T12:30:51;34.60;56.20
11965;DHT22;6042;41.326;19.826;2023-07-31T12:33:22;34.70;56.60
11965;DHT22;6042;41.326;19.826;2023-07-31T12:35:54;34.90;56.30
11965;DHT22;6042;41.326;19.826;2023-07-31T12:38:26;34.70;55.70
11965;DHT22;6042;41.326;19.826;2023-07-31T12:40:54;34.80;55.90
11965;DHT22;6042;41.326;19.826;2023-07-31T12:43:23;34.70;55.50
11965;DHT22;6042;41.326;19.826;2023-07-31T12:45:53;34.90;55.40
11965;DHT22;6042;41.326;19.826;2023-07-31T12:48:23;34.90;54.20
11965;DHT22;6042;41.326;19.826;2023-07-31T12:50:52;34.80;54.60
11965;DHT22;6042;41.326;19.826;2023-07-31T12:53:22;34.70;54.60
11965;DHT22;6042;41.326;19.826;2023-07-31T12:55:51;34.60;54.90
11965;DHT22;6042;41.326;19.826;2023-07-31T12:58:21;34.90;54.60
11965;DHT22;6042;41.326;19.826;2023-07-31T13:00:50;35.40;53.90
11965;DHT22;6042;41.326;19.826;2023-07-31T13:03:20;35.60;53.40
11965;DHT22;6042;41.326;19.826;2023-07-31T13:05:49;35.70;52.60
11965;DHT22;6042;41.326;19.826;2023-07-31T13:08:20;35.90;52.60
11965;DHT22;6042;41.326;19.826;2023-07-31T13:10:50;36.30;51.80
11965;DHT22;6042;41.326;19.826;2023-07-31T13:13:18;37.00;51.10
11965;DHT22;6042;41.326;19.826;2023-07-31T13:15:48;37.60;50.10
11965;DHT22;6042;41.326;19.826;2023-07-31T13:18:16;38.00;49.20
11965;DHT22;6042;41.326;19.826;2023-07-31T13:20:45;38.50;48.30
11965;DHT22;6042;41.326;19.826;2023-07-31T13:23:14;39.20;47.20
11965;DHT22;6042;41.326;19.826;2023-07-31T13:25:43;39.60;46.40
11965;DHT22;6042;41.326;19.826;2023-07-31T13:28:13;40.00;46.00
11965;DHT22;6042;41.326;19.826;2023-07-31T13:30:42;39.50;45.70
11965;DHT22;6042;41.326;19.826;2023-07-31T13:33:11;39.90;45.50
11965;DHT22;6042;41.326;19.826;2023-07-31T13:35:59;40.60;44.70
11965;DHT22;6042;41.326;19.826;2023-07-31T13:38:28;41.70;43.20
11965;DHT22;6042;41.326;19.826;2023-07-31T13:40:57;42.00;41.90
11965;DHT22;6042;41.326;19.826;2023-07-31T13:43:27;41.90;41.90
11965;DHT22;6042;41.326;19.826;2023-07-31T13:45:55;42.10;42.30
11965;DHT22;6042;41.326;19.826;2023-07-31T13:48:24;42.30;41.60
11965;DHT22;6042;41.326;19.826;2023-07-31T13:50:53;41.80;42.00
11965;DHT22;6042;41.326;19.826;2023-07-31T13:53:21;41.60;42.10
11965;DHT22;6042;41.326;19.826;2023-07-31T13:55:50;41.60;42.10
11965;DHT22;6042;41.326;19.826;2023-07-31T13:58:18;42.00;41.30
11965;DHT22;6042;41.326;19.826;2023-07-31T14:00:48;41.40;41.90
11965;DHT22;6042;41.326;19.826;2023-07-31T14:03:21;41.60;41.50
11965;DHT22;6042;41.326;19.826;2023-07-31T14:05:49;40.60;42.00
11965;DHT22;6042;41.326;19.826;2023-07-31T14:08:19;40.00;43.40
11965;DHT22;6042;41.326;19.826;2023-07-31T14:10:47;40.60;43.00
11965;DHT22;6042;41.326;19.826;2023-07-31T14:13:16;40.60;42.70
11965;DHT22;6042;41.326;19.826;2023-07-31T14:15:45;41.00;43.60
11965;DHT22;6042;41.326;19.826;2023-07-31T14:18:15;41.00;46.90
11965;DHT22;6042;41.326;19.826;2023-07-31T14:20:44;39.80;48.50
11965;DHT22;6042;41.326;19.826;2023-07-31T14:23:12;39.30;49.30
11965;DHT22;6042;41.326;19.826;2023-07-31T14:25:41;39.10;49.80
11965;DHT22;6042;41.326;19.826;2023-07-31T14:28:09;39.50;49.70
11965;DHT22;6042;41.326;19.826;2023-07-31T14:30:38;39.50;49.00
11965;DHT22;6042;41.326;19.826;2023-07-31T14:33:07;39.50;48.70
11965;DHT22;6042;41.326;19.826;2023-07-31T14:35:37;39.50;48.50
11965;DHT22;6042;41.326;19.826;2023-07-31T14:38:06;39.10;49.40
11965;DHT22;6042;41.326;19.826;2023-07-31T14:40:36;39.70;48.90
11965;DHT22;6042;41.326;19.826;2023-07-31T14:43:05;40.10;48.40
11965;DHT22;6042;41.326;19.826;2023-07-31T14:45:34;40.20;47.10
11965;DHT22;6042;41.326;19.826;2023-07-31T14:48:03;40.30;47.90
11965;DHT22;6042;41.326;19.826;2023-07-31T14:50:31;40.90;47.00
11965;DHT22;6042;41.326;19.826;2023-07-31T14:53:02;40.70;45.80
11965;DHT22;6042;41.326;19.826;2023-07-31T14:55:30;40.70;45.70
11965;DHT22;6042;41.326;19.826;2023-07-31T14:57:59;41.00;47.60
11965;DHT22;6042;41.326;19.826;2023-07-31T15:00:28;41.30;49.00
11965;DHT22;6042;41.326;19.826;2023-07-31T15:02:56;41.30;48.70
11965;DHT22;6042;41.326;19.826;2023-07-31T15:05:25;41.00;49.50
11965;DHT22;6042;41.326;19.826;2023-07-31T15:07:54;40.70;50.00
11965;DHT22;6042;41.326;19.826;2023-07-31T15:10:24;40.20;51.40
11965;DHT22;6042;41.326;19.826;2023-07-31T15:12:52;39.90;52.00
11965;DHT22;6042;41.326;19.826;2023-07-31T15:15:21;39.60;52.80
11965;DHT22;6042;41.326;19.826;2023-07-31T15:17:50;39.30;53.90
11965;DHT22;6042;41.326;19.826;2023-07-31T15:20:19;39.30;53.50
11965;DHT22;6042;41.326;19.826;2023-07-31T15:22:48;38.40;55.40
11965;DHT22;6042;41.326;19.826;2023-07-31T15:25:16;38.00;56.60
11965;DHT22;6042;41.326;19.826;2023-07-31T15:27:46;37.20;58.00
11965;DHT22;6042;41.326;19.826;2023-07-31T15:30:15;36.40;60.00
11965;DHT22;6042;41.326;19.826;2023-07-31T15:32:44;36.00;61.30
11965;DHT22;6042;41.326;19.826;2023-07-31T15:35:16;35.40;63.20
11965;DHT22;6042;41.326;19.826;2023-07-31T15:37:48;35.40;64.40
11965;DHT22;6042;41.326;19.826;2023-07-31T15:40:17;35.30;65.20
11965;DHT22;6042;41.326;19.826;2023-07-31T15:42:47;35.50;65.10
11965;DHT22;6042;41.326;19.826;2023-07-31T15:45:15;35.40;65.70
11965;DHT22;6042;41.326;19.826;2023-07-31T15:47:44;35.30;66.40